Terminal Aerodrome Forecast
Issued by NWS Newport/Morehead City, NC

Home | Current Version | Previous Version | Graphics & Text | Print | Product List | Glossary On
Versions: 1 2 3 4 5 6 7 8 9 10 11 12 13 14
000
FTUS42 KMHX 241700 RRA
TAFEWN
TAF
KEWN 241741Z 2418/2518 30008G15KT P6SM VCSH OVC008
     FM242000 29012G20KT P6SM BKN025
     FM250000 28006KT P6SM SKC=

USA.gov is the U.S. government's official web portal to all federal, state and local government web resources and services.